Briarwood, North Dakota
Current Conditions -  °F | °C
As of 12:53 AM on Thursday 23 Oct 2014 (Local Time) from KFAR Reporting Station
Clear Clear  
Wind Chill: 51°   Ceiling: Unl
Heat Index: 51°   Visibility: 10mi
Dew Point: 48°   Wind: 10mph
Humidity: 89%   Direction: 210°SSW
Pressure: 29.89"   Gusts: NA
Location:  46.8079°N, 96.8643°W
Report Text: KFAR 230553Z 21009KT 10SM CLR 11/09 A2989 RMK AO2 SLP125 T01060089 10133 20094 402000094 51001
Loading
Personal Weather Stations






























Interactive Weather Map
Tropical Storm Tracking
New forecast layout! Learn more

10-Day Weather Forecast

Advertisements
Track Severe Weather on mobile